createdAt,value
2022-08-01T00:04:55.511Z,3.22
2022-08-01T00:09:57.267Z,2.73
2022-08-01T00:14:59.003Z,2.90
2022-08-01T00:20:01.145Z,2.75
2022-08-01T00:25:05.301Z,4.03
2022-08-01T00:30:13.653Z,3.42
2022-08-01T00:35:16.213Z,3.15
2022-08-01T00:40:17.975Z,3.50
2022-08-01T00:45:19.929Z,2.40
2022-08-01T00:50:21.660Z,2.63
2022-08-01T00:55:24.206Z,2.13
2022-08-01T01:00:27.405Z,2.17
2022-08-01T01:05:33.527Z,2.08
2022-08-01T01:10:56.675Z,3.22
2022-08-01T01:16:05.830Z,3.35
2022-08-01T01:21:19.242Z,3.50
2022-08-01T01:27:00.296Z,1.93
2022-08-01T01:32:17.461Z,2.20
2022-08-01T01:37:22.651Z,1.70
2022-08-01T01:42:26.319Z,6.30
2022-08-01T01:47:29.466Z,2.47
2022-08-01T01:52:32.868Z,3.30
2022-08-01T01:57:41.225Z,1.40
2022-08-01T02:02:45.251Z,2.20
2022-08-01T02:07:48.582Z,2.37
2022-08-01T02:12:51.248Z,2.08
2022-08-01T02:17:55.701Z,4.32
2022-08-01T02:23:06.130Z,2.22
2022-08-01T02:28:32.212Z,2.92
2022-08-01T02:33:45.153Z,2.95
2022-08-01T02:38:47.504Z,2.65
2022-08-01T02:43:53.572Z,2.55
2022-08-01T02:48:59.307Z,5.20
2022-08-01T02:54:03.909Z,5.00
2022-08-01T02:59:11.964Z,3.37
2022-08-01T03:04:17.831Z,2.92
2022-08-01T03:09:20.462Z,4.13
2022-08-01T03:14:24.689Z,4.90
2022-08-01T03:19:29.118Z,4.68
2022-08-01T03:24:31.991Z,3.57
2022-08-01T03:29:34.666Z,4.33
2022-08-01T03:34:36.387Z,4.45
2022-08-01T03:39:50.215Z,4.43
2022-08-01T03:44:57.856Z,5.13
2022-08-01T03:50:01.483Z,3.42
2022-08-01T03:55:07.333Z,3.90
2022-08-01T04:00:09.593Z,3.67
2022-08-01T04:05:11.736Z,3.67
2022-08-01T04:10:14.078Z,4.05
2022-08-01T04:15:15.887Z,3.05
2022-08-01T04:20:17.775Z,7.15
2022-08-01T04:25:32.934Z,3.90
2022-08-01T04:30:36.735Z,4.15
2022-08-01T04:36:04.149Z,3.75
2022-08-01T04:41:08.761Z,4.00
2022-08-01T04:46:12.786Z,5.27
2022-08-01T04:51:16.359Z,4.53
2022-08-01T04:56:19.695Z,5.72
2022-08-01T05:01:21.514Z,3.37
2022-08-01T05:06:23.350Z,3.72
2022-08-01T05:11:25.141Z,3.60
2022-08-01T05:16:26.883Z,3.65
2022-08-01T05:21:28.610Z,3.70
2022-08-01T05:26:30.296Z,5.75
2022-08-01T05:31:34.161Z,5.13
2022-08-01T05:36:35.868Z,4.57
2022-08-01T05:41:38.012Z,2.72
2022-08-01T05:46:39.904Z,4.47
2022-08-01T05:51:41.632Z,2.75
2022-08-01T05:56:43.406Z,4.47
2022-08-01T06:01:45.244Z,1.77
2022-08-01T06:06:47.025Z,2.33
2022-08-01T06:11:48.819Z,2.45
2022-08-01T06:16:50.568Z,2.28
2022-08-01T06:21:52.273Z,2.73
2022-08-01T06:26:53.975Z,4.10
2022-08-01T06:31:55.663Z,2.03
2022-08-01T06:36:57.395Z,1.70
2022-08-01T06:41:59.104Z,2.33
2022-08-01T06:47:00.819Z,1.47
2022-08-01T06:52:02.822Z,3.03
2022-08-01T06:57:07.619Z,4.78
2022-08-01T07:02:09.744Z,2.03
2022-08-01T07:07:11.676Z,1.00
2022-08-01T07:12:13.411Z,1.20
2022-08-01T07:17:15.139Z,1.42
2022-08-01T07:22:20.967Z,1.20
2022-08-01T07:27:26.059Z,2.47
2022-08-01T07:32:28.172Z,2.00
2022-08-01T07:37:46.138Z,2.50
2022-08-01T07:42:51.028Z,1.57
2022-08-01T07:53:59.421Z,3.40
2022-08-01T07:59:01.144Z,1.63
2022-08-01T08:04:02.994Z,1.70
2022-08-01T08:09:04.773Z,1.88
2022-08-01T08:14:06.527Z,2.00
2022-08-01T08:19:08.261Z,2.50
2022-08-01T08:24:10.712Z,2.55
2022-08-01T08:29:14.520Z,1.80
2022-08-01T08:34:16.770Z,2.85
2022-08-01T08:39:19.890Z,2.72
2022-08-01T08:44:21.990Z,2.50
2022-08-01T08:49:27.135Z,4.43
2022-08-01T08:54:41.991Z,3.17
2022-08-01T08:59:47.112Z,3.50
2022-08-01T09:04:50.457Z,2.80
2022-08-01T09:09:52.193Z,3.47
2022-08-01T09:14:53.919Z,6.05
2022-08-01T09:19:57.651Z,5.70
2022-08-01T09:25:11.048Z,4.07
2022-08-01T09:30:19.238Z,7.45
2022-08-01T09:35:43.367Z,3.13
2022-08-01T09:40:58.066Z,3.57
2022-08-01T09:46:05.029Z,4.65
2022-08-01T09:51:09.794Z,5.13
2022-08-01T09:56:13.064Z,4.43
2022-08-01T10:01:14.864Z,3.37
2022-08-01T10:06:24.710Z,4.68
2022-08-01T10:11:36.299Z,5.45
2022-08-01T10:16:39.083Z,4.43
2022-08-01T10:21:57.497Z,4.10
2022-08-01T10:27:06.074Z,3.20
2022-08-01T10:32:11.326Z,6.87
2022-08-01T10:37:14.315Z,3.97
2022-08-01T10:42:19.449Z,3.85
2022-08-01T10:47:50.066Z,5.20
2022-08-01T10:53:23.982Z,6.33
2022-08-01T11:04:15.589Z,2.90
2022-08-01T11:09:37.065Z,6.05
2022-08-01T11:15:03.535Z,2.80
2022-08-01T11:20:09.465Z,2.33
2022-08-01T11:25:11.183Z,3.40
2022-08-01T11:30:15.382Z,4.47
2022-08-01T11:35:23.202Z,2.97
2022-08-01T11:40:29.601Z,1.90
2022-08-01T11:45:53.018Z,1.17
2022-08-01T11:50:57.948Z,1.50
2022-08-01T11:56:04.544Z,1.87
2022-08-01T12:01:07.478Z,2.20
2022-08-01T12:06:10.172Z,1.35
2022-08-01T12:11:11.961Z,1.30
2022-08-01T12:16:13.748Z,1.80
2022-08-01T12:21:15.428Z,1.20
2022-08-01T12:26:28.488Z,1.42
2022-08-01T12:31:37.068Z,1.67
2022-08-01T12:36:38.897Z,1.30
2022-08-01T12:41:44.144Z,2.58
2022-08-01T12:46:45.963Z,2.00
2022-08-01T12:51:57.298Z,2.00
2022-08-01T12:56:59.482Z,2.15
2022-08-01T13:02:09.555Z,1.55
2022-08-01T13:07:11.387Z,1.53
2022-08-01T13:12:13.428Z,3.33
2022-08-01T13:17:34.110Z,1.10
2022-08-01T13:22:37.424Z,1.98
2022-08-01T13:27:39.704Z,0.68
2022-08-01T13:33:00.238Z,0.68
2022-08-01T13:38:01.966Z,2.40
2022-08-01T13:43:03.676Z,4.65
2022-08-01T13:48:12.773Z,1.60
2022-08-01T13:53:20.549Z,1.83
2022-08-01T13:58:22.386Z,2.30
2022-08-01T14:03:33.206Z,2.65
2022-08-01T14:08:35.418Z,1.08
2022-08-01T14:13:37.544Z,0.88
2022-08-01T14:18:39.294Z,3.05
2022-08-01T14:23:41.228Z,1.65
2022-08-01T14:28:42.949Z,1.00
2022-08-01T14:33:44.674Z,1.38
2022-08-01T14:38:46.844Z,0.43
2022-08-01T14:43:48.684Z,1.23
2022-08-01T14:48:50.458Z,1.10
2022-08-01T14:53:53.150Z,0.65
2022-08-01T14:58:55.286Z,0.93
2022-08-01T15:03:57.006Z,0.70
2022-08-01T15:08:58.704Z,1.27
2022-08-01T15:14:00.442Z,3.20
2022-08-01T15:19:02.164Z,0.77
2022-08-01T15:24:04.040Z,0.65
2022-08-01T15:29:05.819Z,0.67
2022-08-01T15:34:07.547Z,0.90
2022-08-01T15:39:10.298Z,1.35
2022-08-01T15:44:12.085Z,1.60
2022-08-01T15:49:14.241Z,2.40
2022-08-01T15:54:16.246Z,0.82
2022-08-01T15:59:18.022Z,1.50
2022-08-01T16:04:19.835Z,0.60
2022-08-01T16:09:24.366Z,1.50
2022-08-01T16:14:28.777Z,1.52
2022-08-01T16:19:30.488Z,1.85
2022-08-01T16:24:32.400Z,1.13
2022-08-01T16:29:34.166Z,1.38
2022-08-01T16:34:36.124Z,0.40
2022-08-01T16:39:38.664Z,1.85
2022-08-01T16:44:40.385Z,1.00
2022-08-01T16:49:45.244Z,2.50
2022-08-01T16:54:46.961Z,1.75
2022-08-01T16:59:48.677Z,1.73
2022-08-01T17:04:50.395Z,1.42
2022-08-01T17:09:52.200Z,0.77
2022-08-01T17:14:54.522Z,1.80
2022-08-01T17:20:04.422Z,1.80
2022-08-01T17:25:06.427Z,0.93
2022-08-01T17:30:18.302Z,1.67
2022-08-01T17:35:20.272Z,0.63
2022-08-01T17:40:39.614Z,1.00
2022-08-01T17:45:50.761Z,1.57
2022-08-01T17:50:53.049Z,1.00
2022-08-01T17:55:57.200Z,3.17
2022-08-01T18:00:59.745Z,1.53
2022-08-01T18:06:01.927Z,0.95
2022-08-01T18:11:04.222Z,2.80
2022-08-01T18:16:06.384Z,2.28
2022-08-01T18:34:09.261Z,3.92
2022-08-01T18:39:11.142Z,3.92
2022-08-01T18:44:12.884Z,1.40
2022-08-01T18:49:14.646Z,4.53
2022-08-01T18:54:16.762Z,6.20
2022-08-01T18:59:19.033Z,2.65
2022-08-01T19:04:20.768Z,3.40
2022-08-01T19:09:22.896Z,3.10
2022-08-01T19:14:24.683Z,4.07
2022-08-01T19:19:27.841Z,2.95
2022-08-01T19:24:29.953Z,3.53
2022-08-01T19:29:36.181Z,2.50
2022-08-01T19:34:48.930Z,5.63
2022-08-01T19:39:51.607Z,3.90
2022-08-01T19:44:54.168Z,4.20
2022-08-01T19:49:55.901Z,3.00
2022-08-01T19:54:57.972Z,4.05
2022-08-01T20:00:02.226Z,4.53
2022-08-01T20:05:04.190Z,4.03
2022-08-01T20:10:06.541Z,4.22
2022-08-01T20:15:09.009Z,5.63
2022-08-01T20:20:11.336Z,4.97
2022-08-01T20:25:13.442Z,8.77
2022-08-01T20:30:15.205Z,7.03
2022-08-01T20:35:50.740Z,6.88
2022-08-01T20:40:43.702Z,7.28
2022-08-01T20:45:46.131Z,6.65
2022-08-01T20:51:11.336Z,10.23
2022-08-01T20:56:22.062Z,6.95
2022-08-01T21:01:32.711Z,2.87
2022-08-01T21:06:38.036Z,2.38
2022-08-01T21:11:48.667Z,4.00
2022-08-01T21:16:58.864Z,4.17
2022-08-01T21:22:14.651Z,5.87
2022-08-01T21:27:17.398Z,5.32
2022-08-01T21:32:21.848Z,5.72
2022-08-01T21:37:23.591Z,3.80
2022-08-01T21:42:36.129Z,6.63
2022-08-01T21:47:37.975Z,6.13
2022-08-01T21:52:46.006Z,5.47
2022-08-01T21:57:55.443Z,5.38
2022-08-01T22:03:12.295Z,4.77
2022-08-01T22:08:17.779Z,3.45
2022-08-01T22:13:19.779Z,4.37
2022-08-01T22:18:23.117Z,4.55
2022-08-01T22:23:24.987Z,3.10
2022-08-01T22:28:27.568Z,3.67
2022-08-01T22:33:29.503Z,2.70
2022-08-01T22:38:31.476Z,2.78
2022-08-01T22:43:44.708Z,2.35
2022-08-01T22:49:09.536Z,1.67
2022-08-01T22:54:20.885Z,1.77
2022-08-01T22:59:41.686Z,2.20
2022-08-01T23:04:48.259Z,2.72
2022-08-01T23:09:54.287Z,1.17
2022-08-01T23:14:58.913Z,1.67
2022-08-01T23:20:06.797Z,3.33
2022-08-01T23:25:14.064Z,2.40
2022-08-01T23:30:15.845Z,2.08
2022-08-01T23:35:17.627Z,1.13
2022-08-01T23:40:20.011Z,2.95
2022-08-01T23:45:22.388Z,1.80
2022-08-01T23:50:24.348Z,2.33
2022-08-01T23:55:36.864Z,1.17
